Time;durP1;ratioP1;P1;durP2;ratioP2;P2;SDS_P1;SDS_P2;PMS_P1;PMS_P2;Temp;Humidity;BMP_temperature;BMP_pressure;BME280_temperature;BME280_humidity;BME280_pressure;Samples;Min_cycle;Max_cycle;Signal;HPM_P1;HPM_P2
2022/10/24 00:01:12;;;;;;;19.20;17.30;;;;;;;9.17;100.00;99567.68;1761022;80;22130;-69
2022/10/24 00:03:39;;;;;;;16.25;14.70;;;;;;;9.13;100.00;99571.27;1753767;80;21010;-69
2022/10/24 00:06:08;;;;;;;19.50;16.80;;;;;;;9.10;100.00;99570.08;1752858;80;21015;-69
2022/10/24 00:08:35;;;;;;;24.77;22.37;;;;;;;9.06;100.00;99565.87;1765620;80;20955;-69
2022/10/24 00:11:14;;;;;;;35.33;31.95;;;;;;;9.03;100.00;99572.47;1775754;80;20981;-69
2022/10/24 00:13:41;;;;;;;43.02;38.63;;;;;;;8.97;100.00;99573.54;1762846;80;20979;-69
2022/10/24 00:16:10;;;;;;;22.52;20.35;;;;;;;8.92;100.00;99569.80;1763469;80;20954;-69
2022/10/24 00:18:38;;;;;;;18.17;16.37;;;;;;;8.88;100.00;99569.94;1773734;80;20998;-70
2022/10/24 00:21:05;;;;;;;20.25;18.20;;;;;;;8.83;100.00;99563.59;1759804;80;21037;-70
2022/10/24 00:23:34;;;;;;;24.37;21.97;;;;;;;8.80;100.00;99563.70;1766770;80;21456;-70
2022/10/24 00:26:03;;;;;;;26.95;24.05;;;;;;;8.78;100.00;99560.33;1757553;80;20935;-70
2022/10/24 00:28:32;;;;;;;16.85;15.08;;;;;;;8.77;100.00;99561.67;1780037;80;21006;-70
2022/10/24 00:30:58;;;;;;;15.18;13.53;;;;;;;8.77;100.00;99565.12;1770425;80;21125;-70
2022/10/24 00:33:26;;;;;;;13.20;11.90;;;;;;;8.81;100.00;99564.55;1758447;80;20938;-70
2022/10/24 00:35:53;;;;;;;15.03;13.43;;;;;;;8.86;100.00;99563.50;1751527;80;21155;-70
2022/10/24 00:38:20;;;;;;;15.32;12.63;;;;;;;8.91;100.00;99565.95;1763231;80;20986;-69
2022/10/24 02:47:04;;;;;;;13.25;10.40;;;;;;;10.75;100.00;99571.31;1684715;84;20916;-69
2022/10/24 02:49:31;;;;;;;10.50;9.03;;;;;;;10.73;100.00;99576.58;1682539;85;21426;-69
2022/10/24 02:51:58;;;;;;;13.25;8.78;;;;;;;10.68;100.00;99573.30;1631198;84;21087;-69
2022/10/24 02:54:25;;;;;;;16.25;10.43;;;;;;;10.65;100.00;99570.37;1612100;86;21075;-69
2022/10/24 02:56:57;;;;;;;15.13;11.10;;;;;;;10.61;100.00;99566.64;1681720;85;20990;-70
2022/10/24 02:59:24;;;;;;;14.98;11.28;;;;;;;10.54;100.00;99577.77;1680841;85;20974;-70
2022/10/24 03:01:50;;;;;;;13.28;10.13;;;;;;;10.45;100.00;99573.36;1683969;84;21113;-67
2022/10/24 03:04:17;;;;;;;12.85;8.53;;;;;;;10.35;100.00;99573.73;1681232;84;20950;-67
2022/10/24 03:06:43;;;;;;;10.43;9.30;;;;;;;10.27;100.00;99571.03;1682727;84;21517;-67
2022/10/24 03:09:10;;;;;;;11.70;9.08;;;;;;;10.15;100.00;99573.63;1684968;84;21541;-67
2022/10/24 03:11:38;;;;;;;13.22;9.93;;;;;;;10.05;100.00;99572.27;1654029;86;21424;-67
2022/10/24 03:14:07;;;;;;;9.90;8.35;;;;;;;9.94;100.00;99576.58;1630778;86;21004;-68
2022/10/24 03:16:34;;;;;;;10.53;7.97;;;;;;;9.84;100.00;99578.25;1646976;86;21019;-68
2022/10/24 03:19:02;;;;;;;11.00;8.83;;;;;;;9.75;100.00;99582.05;1652287;86;21032;-68
2022/10/24 03:21:28;;;;;;;11.22;8.83;;;;;;;9.66;100.00;99584.97;1648759;86;20984;-67
2022/10/24 03:24:02;;;;;;;9.58;8.60;;;;;;;9.58;100.00;99583.11;1644087;85;21091;-67
2022/10/24 03:26:29;;;;;;;12.68;8.28;;;;;;;9.49;100.00;99577.78;1618214;87;21047;-68
2022/10/24 03:28:56;;;;;;;12.33;7.65;;;;;;;9.42;100.00;99582.78;1610869;87;21091;-68
2022/10/24 03:31:22;;;;;;;9.73;7.97;;;;;;;9.36;100.00;99584.77;1619406;87;21132;-67
2022/10/24 03:33:49;;;;;;;10.05;8.90;;;;;;;9.28;100.00;99587.61;1600120;88;21251;-67
2022/10/24 03:36:17;;;;;;;12.00;9.43;;;;;;;9.23;100.00;99592.10;1616954;87;21541;-67
2022/10/24 03:38:44;;;;;;;9.08;8.08;;;;;;;9.19;100.00;99592.65;1616970;87;20993;-71
2022/10/24 03:41:10;;;;;;;11.20;7.97;;;;;;;9.17;100.00;99590.59;1612153;87;21588;-71
2022/10/24 03:43:40;;;;;;;10.68;8.55;;;;;;;9.13;100.00;99594.18;1619117;87;21484;-71
2022/10/24 03:46:08;;;;;;;13.00;9.50;;;;;;;9.11;100.00;99599.02;1599340;88;22543;-71
2022/10/24 03:48:35;;;;;;;13.45;9.83;;;;;;;9.09;100.00;99602.11;1617187;87;20989;-70
2022/10/24 03:51:02;;;;;;;10.82;8.55;;;;;;;9.07;100.00;99603.45;1617248;87;21516;-71
2022/10/24 03:53:29;;;;;;;10.53;8.13;;;;;;;9.09;100.00;99600.36;1612720;87;21108;-70
2022/10/24 03:55:59;;;;;;;11.55;9.70;;;;;;;9.13;100.00;99601.11;1594765;88;20996;-71
2022/10/24 03:58:26;;;;;;;10.93;9.78;;;;;;;9.15;100.00;99587.64;1619752;86;21164;-71
2022/10/24 04:00:55;;;;;;;11.88;10.28;;;;;;;9.18;100.00;99581.91;1615695;86;21064;-71
2022/10/24 04:03:21;;;;;;;11.60;9.68;;;;;;;9.23;100.00;99581.72;1640574;85;21062;-70
2022/10/24 04:05:48;;;;;;;10.53;8.95;;;;;;;9.29;100.00;99587.56;1622172;87;20997;-70
2022/10/24 04:08:14;;;;;;;12.40;9.65;;;;;;;9.31;100.00;99581.02;1619025;88;21032;-70
2022/10/24 04:10:42;;;;;;;12.80;9.50;;;;;;;9.33;100.00;99577.92;1618876;87;21061;-70
2022/10/24 04:13:09;;;;;;;11.50;9.43;;;;;;;9.37;100.00;99578.23;1618915;88;20980;-70
2022/10/24 04:15:37;;;;;;;9.50;8.45;;;;;;;9.40;100.00;99580.69;1620515;88;21013;-70
2022/10/24 04:18:07;;;;;;;15.20;8.40;;;;;;;9.44;100.00;99583.58;1619430;88;20984;-71
2022/10/24 04:20:43;;;;;;;10.98;8.88;;;;;;;9.48;100.00;99585.17;1622616;88;21088;-70
2022/10/24 04:23:10;;;;;;;13.58;10.28;;;;;;;9.51;100.00;99583.77;1618934;88;21167;-70
2022/10/24 04:25:36;;;;;;;13.62;11.22;;;;;;;9.55;100.00;99588.41;1618801;88;20972;-70
2022/10/24 04:28:04;;;;;;;10.55;8.48;;;;;;;9.56;100.00;99588.36;1618997;88;20984;-70
2022/10/24 04:30:31;;;;;;;9.35;8.28;;;;;;;9.59;100.00;99586.92;1618895;87;21041;-70
2022/10/24 04:32:57;;;;;;;10.98;8.43;;;;;;;9.62;100.00;99589.42;1618768;88;21037;-71
2022/10/24 04:35:26;;;;;;;10.70;9.30;;;;;;;9.62;100.00;99588.12;1619064;88;20985;-71
2022/10/24 04:37:52;;;;;;;11.38;9.55;;;;;;;9.64;100.00;99595.86;1619071;87;21089;-70
2022/10/24 04:40:19;;;;;;;10.18;9.05;;;;;;;9.65;100.00;99588.02;1619001;88;21033;-71
2022/10/24 04:42:45;;;;;;;11.00;9.45;;;;;;;9.68;100.00;99590.95;1619068;87;21025;-70
2022/10/24 04:45:12;;;;;;;12.55;9.88;;;;;;;9.67;100.00;99596.60;1622611;88;21100;-70
2022/10/24 04:47:38;;;;;;;13.58;10.18;;;;;;;9.66;100.00;99598.80;1619092;88;21116;-71
2022/10/24 04:50:07;;;;;;;15.80;11.38;;;;;;;9.65;100.00;99603.59;1619036;88;20985;-71
2022/10/24 04:52:33;;;;;;;12.45;9.93;;;;;;;9.66;100.00;99604.00;1619090;88;21543;-71
2022/10/24 04:55:00;;;;;;;10.30;8.50;;;;;;;9.69;100.00;99612.13;1619421;88;21552;-72
2022/10/24 04:57:27;;;;;;;11.45;8.55;;;;;;;9.74;100.00;99614.13;1619079;88;21021;-70
2022/10/24 04:59:53;;;;;;;11.60;8.98;;;;;;;9.78;100.00;99614.86;1619078;88;21153;-71
2022/10/24 05:02:20;;;;;;;12.53;10.20;;;;;;;9.80;100.00;99620.83;1618937;87;21076;-69
2022/10/24 05:04:46;;;;;;;11.20;8.50;;;;;;;9.81;100.00;99619.47;1618956;88;20993;-70
2022/10/24 05:07:15;;;;;;;11.00;7.75;;;;;;;9.83;100.00;99620.72;1619706;88;21461;-69
2022/10/24 05:09:41;;;;;;;12.40;8.88;;;;;;;9.86;100.00;99618.02;1616843;87;21537;-70
2022/10/24 05:12:12;;;;;;;10.05;8.65;;;;;;;9.88;100.00;99624.01;1637617;86;21286;-71
2022/10/24 05:14:41;;;;;;;9.63;8.63;;;;;;;9.88;100.00;99622.71;1617497;88;21087;-70
2022/10/24 05:17:07;;;;;;;11.65;8.13;;;;;;;9.86;100.00;99627.11;1615302;87;21596;-70
2022/10/24 05:19:35;;;;;;;13.18;8.85;;;;;;;9.81;100.00;99618.63;1641776;85;21162;-71
2022/10/24 05:22:02;;;;;;;13.03;9.18;;;;;;;9.78;100.00;99626.55;1592881;88;21250;-71
2022/10/24 05:24:29;;;;;;;10.78;9.40;;;;;;;9.75;100.00;99631.41;1589352;89;22001;-71
2022/10/24 05:26:59;;;;;;;13.83;9.60;;;;;;;9.72;100.00;99635.85;1579175;90;21011;-71
2022/10/24 05:29:25;;;;;;;13.03;8.53;;;;;;;9.67;100.00;99631.66;1624803;85;21034;-70
2022/10/24 05:31:56;;;;;;;10.13;8.55;;;;;;;9.65;100.00;99631.31;1631920;86;21131;-70
2022/10/24 05:34:25;;;;;;;12.15;9.88;;;;;;;9.62;100.00;99628.37;1616192;86;21068;-71
2022/10/24 05:36:56;;;;;;;16.80;13.62;;;;;;;9.63;100.00;99637.01;1628657;86;21175;-71
2022/10/24 05:39:29;;;;;;;13.55;11.05;;;;;;;9.62;100.00;99636.16;1625624;86;20952;-71
2022/10/24 05:41:56;;;;;;;12.37;9.90;;;;;;;9.65;100.00;99637.36;1640241;86;21077;-71
2022/10/24 05:44:24;;;;;;;10.88;9.20;;;;;;;9.72;100.00;99639.75;1644369;85;21022;-73
2022/10/24 05:46:51;;;;;;;10.08;9.08;;;;;;;9.81;100.00;99635.52;1640751;85;20979;-72
2022/10/24 05:49:18;;;;;;;11.65;9.50;;;;;;;9.89;100.00;99638.24;1644394;87;21534;-70
2022/10/24 05:51:45;;;;;;;11.28;10.13;;;;;;;9.97;100.00;99637.98;1637102;85;21022;-68
2022/10/24 05:54:11;;;;;;;13.70;8.88;;;;;;;10.04;100.00;99643.33;1631836;86;21035;-70
2022/10/24 05:56:41;;;;;;;10.28;8.63;;;;;;;10.10;100.00;99644.41;1602101;86;21434;-70
2022/10/24 05:59:09;;;;;;;14.13;10.65;;;;;;;10.16;100.00;99637.70;1600302;87;21510;-70
2022/10/24 06:01:36;;;;;;;16.17;10.93;;;;;;;10.21;100.00;99638.38;1639728;86;21149;-70
2022/10/24 06:04:09;;;;;;;14.00;10.95;;;;;;;10.22;100.00;99643.98;1609089;88;21028;-71
2022/10/24 06:06:49;;;;;;;14.73;12.47;;;;;;;10.19;100.00;99648.47;1594999;87;20997;-70
2022/10/24 06:09:17;;;;;;;10.40;8.50;;;;;;;10.17;100.00;99650.25;1608705;86;21019;-70
2022/10/24 06:11:45;;;;;;;12.58;9.45;;;;;;;10.18;100.00;99651.94;1610750;87;20982;-70
2022/10/24 06:14:13;;;;;;;10.95;9.83;;;;;;;10.18;100.00;99661.04;1622929;87;21705;-70
2022/10/24 06:16:43;;;;;;;12.20;10.08;;;;;;;10.15;100.00;99659.39;1639497;86;21472;-70
2022/10/24 06:19:12;;;;;;;12.00;9.28;;;;;;;10.13;100.00;99662.50;1643649;86;21037;-72
2022/10/24 06:21:38;;;;;;;11.93;9.13;;;;;;;10.14;100.00;99664.20;1638673;86;21080;-73
2022/10/24 06:24:15;;;;;;;10.15;9.15;;;;;;;10.16;100.00;99662.39;1648415;86;21474;-72
2022/10/24 06:26:43;;;;;;;11.55;10.28;;;;;;;10.17;100.00;99667.98;1633506;86;21246;-72
2022/10/24 06:29:10;;;;;;;12.63;11.38;;;;;;;10.19;100.00;99668.78;1636513;85;21011;-69
2022/10/24 06:31:37;;;;;;;11.88;9.45;;;;;;;10.23;100.00;99666.92;1644760;86;21644;-71
2022/10/24 06:34:05;;;;;;;11.15;9.18;;;;;;;10.29;100.00;99668.00;1645072;86;21019;-72
2022/10/24 06:36:34;;;;;;;12.63;9.85;;;;;;;10.35;100.00;99675.14;1633814;85;21049;-72
2022/10/24 06:39:03;;;;;;;13.35;10.85;;;;;;;10.40;100.00;99667.14;1616068;87;21975;-72
2022/10/24 06:41:31;;;;;;;12.82;11.53;;;;;;;10.43;100.00;99669.62;1591382;86;20982;-72
2022/10/24 06:43:58;;;;;;;11.38;9.43;;;;;;;10.46;100.00;99664.31;1621637;87;20973;-70
2022/10/24 06:46:25;;;;;;;12.18;8.90;;;;;;;10.51;100.00;99668.05;1620479;87;21089;-71
2022/10/24 06:49:01;;;;;;;10.53;9.53;;;;;;;10.57;100.00;99662.62;1618643;87;21044;-70
2022/10/24 06:51:32;;;;;;;10.55;9.50;;;;;;;10.62;100.00;99669.77;1624996;87;21345;-72
2022/10/24 06:54:03;;;;;;;12.80;10.35;;;;;;;10.65;100.00;99675.71;1608702;86;21558;-73
2022/10/24 06:56:32;;;;;;;13.62;10.28;;;;;;;10.68;100.00;99674.30;1603571;88;21157;-73
2022/10/24 06:58:58;;;;;;;12.73;9.40;;;;;;;10.74;100.00;99677.12;1635191;86;21503;-71
2022/10/24 07:01:30;;;;;;;10.55;9.28;;;;;;;10.80;100.00;99678.63;1634473;85;21028;-71
2022/10/24 07:03:59;;;;;;;13.28;9.70;;;;;;;10.85;100.00;99681.44;1612473;86;21574;-72
2022/10/24 07:06:28;;;;;;;11.63;9.80;;;;;;;10.92;100.00;99675.55;1611540;87;20969;-72
2022/10/24 07:08:58;;;;;;;12.25;8.80;;;;;;;10.98;100.00;99677.47;1606764;87;21063;-72
2022/10/24 07:11:26;;;;;;;11.05;8.65;;;;;;;11.02;100.00;99668.61;1617384;87;21148;-70
2022/10/24 07:13:55;;;;;;;10.43;9.33;;;;;;;11.04;100.00;99678.51;1616507;87;21498;-72
2022/10/24 07:16:29;;;;;;;10.90;9.73;;;;;;;11.05;100.00;99670.24;1598828;88;20981;-70
2022/10/24 07:18:58;;;;;;;13.40;10.55;;;;;;;11.06;100.00;99673.24;1601865;86;21458;-70
2022/10/24 07:21:28;;;;;;;12.23;10.08;;;;;;;11.10;100.00;99677.42;1604223;89;21414;-70
2022/10/24 07:23:56;;;;;;;10.20;8.90;;;;;;;11.17;100.00;99675.43;1604273;89;21007;-70
2022/10/24 07:26:24;;;;;;;14.03;9.55;;;;;;;11.22;100.00;99673.01;1604191;89;21098;-73
2022/10/24 07:28:53;;;;;;;11.18;9.78;;;;;;;11.30;100.00;99671.41;1604134;89;21169;-70
2022/10/24 07:31:24;;;;;;;11.12;10.00;;;;;;;11.38;100.00;99665.44;1603834;87;21653;-74
2022/10/24 07:33:52;;;;;;;9.55;8.55;;;;;;;11.47;100.00;99666.34;1641621;86;21060;-71
2022/10/24 07:36:23;;;;;;;8.58;7.78;;;;;;;11.57;100.00;99661.15;1611458;86;21142;-70
2022/10/24 07:38:51;;;;;;;11.18;8.95;;;;;;;11.70;100.00;99661.45;1612006;88;21459;-71
2022/10/24 07:41:19;;;;;;;10.53;9.20;;;;;;;11.79;100.00;99656.35;1595096;89;20960;-71
2022/10/24 07:43:46;;;;;;;10.08;8.98;;;;;;;11.88;100.00;99654.17;1613563;87;21150;-71
2022/10/24 07:46:15;;;;;;;13.93;8.85;;;;;;;11.98;100.00;99654.64;1613534;89;21048;-71
2022/10/24 07:48:41;;;;;;;9.28;7.78;;;;;;;12.05;100.00;99643.84;1618411;87;21499;-70
2022/10/24 07:51:11;;;;;;;10.68;9.08;;;;;;;12.15;100.00;99645.60;1606194;89;21101;-71
2022/10/24 07:53:38;;;;;;;12.85;9.73;;;;;;;12.24;100.00;99649.08;1633481;86;21202;-70
2022/10/24 07:56:10;;;;;;;10.95;9.83;;;;;;;12.35;100.00;99646.84;1613930;86;20980;-73
2022/10/24 07:58:37;;;;;;;11.80;10.00;;;;;;;12.45;100.00;99646.41;1602110;88;21053;-72
2022/10/24 08:01:06;;;;;;;11.70;8.20;;;;;;;12.52;100.00;99646.06;1602602;88;21492;-73
2022/10/24 08:03:34;;;;;;;10.18;7.75;;;;;;;12.61;100.00;99648.22;1590937;88;21046;-72
2022/10/24 08:06:11;;;;;;;17.85;10.90;;;;;;;12.71;100.00;99647.34;1633719;86;21904;-71
2022/10/24 08:08:39;;;;;;;12.15;9.50;;;;;;;12.78;100.00;99639.62;1617893;85;21528;-71
2022/10/24 08:11:09;;;;;;;10.18;9.18;;;;;;;12.84;100.00;99643.69;1625612;85;21001;-71
2022/10/24 08:13:38;;;;;;;17.00;11.83;;;;;;;12.89;100.00;99629.95;1612269;86;20977;-71
2022/10/24 08:16:07;;;;;;;12.60;11.28;;;;;;;12.94;100.00;99632.74;1647128;86;21076;-72
2022/10/24 08:18:34;;;;;;;12.23;9.80;;;;;;;13.00;100.00;99636.80;1650854;85;21868;-70
2022/10/24 08:21:04;;;;;;;12.40;9.40;;;;;;;13.05;100.00;99635.66;1646806;86;21069;-71
2022/10/24 08:23:33;;;;;;;12.90;9.20;;;;;;;13.13;100.00;99637.91;1623173;87;20984;-71
2022/10/24 08:26:02;;;;;;;10.58;9.58;;;;;;;13.22;100.00;99639.23;1619133;88;20980;-72
2022/10/24 08:28:31;;;;;;;14.78;9.70;;;;;;;13.29;100.00;99645.40;1596811;87;20979;-70
2022/10/24 08:31:02;;;;;;;11.60;9.70;;;;;;;13.35;100.00;99640.34;1621870;86;21281;-71
2022/10/24 08:33:29;;;;;;;16.95;10.48;;;;;;;13.42;100.00;99636.47;1635023;86;21412;-71
2022/10/24 08:36:02;;;;;;;11.88;10.68;;;;;;;13.51;100.00;99639.95;1642435;86;21031;-71
2022/10/24 08:38:29;;;;;;;16.50;11.45;;;;;;;13.59;100.00;99642.18;1604520;87;21050;-71
2022/10/24 08:40:57;;;;;;;14.70;11.55;;;;;;;13.67;100.00;99642.61;1600935;88;21124;-71
2022/10/24 08:43:24;;;;;;;18.55;10.23;;;;;;;13.72;100.00;99639.31;1586938;89;21268;-69
2022/10/24 08:46:26;;;;;;;12.10;9.80;;;;;;;13.75;100.00;99639.16;1602754;88;21557;-70
2022/10/24 08:48:57;;;;;;;15.88;8.93;;;;;;;13.77;100.00;99632.93;1624093;88;21071;-69
2022/10/24 08:51:40;;;;;;;13.03;9.45;;;;;;;13.82;100.00;99635.28;1623054;86;21525;-71
2022/10/24 08:54:14;;;;;;;15.53;8.15;;;;;;;13.86;100.00;99630.28;1619073;88;20983;-71
2022/10/24 08:56:41;;;;;;;16.17;9.58;;;;;;;13.95;100.00;99639.42;1619045;88;21106;-70
2022/10/24 08:59:12;;;;;;;14.85;9.80;;;;;;;14.09;100.00;99645.61;1618701;88;20983;-69
2022/10/24 09:01:48;;;;;;;16.05;8.80;;;;;;;14.09;100.00;99645.61;1610946;87;21040;-70
2022/10/24 09:04:18;;;;;;;20.55;10.18;;;;;;;14.23;100.00;99642.25;1596349;88;21141;-70
2022/10/24 13:06:50;;;;;;;9.00;7.50;;;;;;;15.75;85.08;99531.35;1816285;78;26909;-69
2022/10/24 13:09:50;;;;;;;13.45;7.87;;;;;;;15.69;85.54;99529.09;1755882;80;21073;-69
2022/10/24 13:12:40;;;;;;;13.38;8.23;;;;;;;15.71;85.79;99529.85;1753450;80;20974;-70
2022/10/24 13:15:28;;;;;;;17.40;8.63;;;;;;;15.73;86.32;99524.52;1748551;81;21018;-70
2022/10/24 13:18:24;;;;;;;15.43;8.28;;;;;;;15.75;86.64;99520.02;1744943;81;21114;-70
2022/10/24 13:21:08;;;;;;;9.80;8.18;;;;;;;15.78;86.72;99510.19;1737195;81;21023;-71
2022/10/24 13:23:35;;;;;;;14.30;8.98;;;;;;;15.82;86.72;99505.57;1726783;81;21507;-70
2022/10/24 13:26:02;;;;;;;33.73;10.38;;;;;;;15.83;86.41;99507.25;1719653;81;21256;-69
2022/10/24 13:28:49;;;;;;;12.37;8.98;;;;;;;15.85;86.57;99514.56;1676678;81;21009;-70
2022/10/24 13:31:21;;;;;;;18.32;10.15;;;;;;;15.83;86.64;99513.34;1735960;81;21446;-70
2022/10/24 13:33:48;;;;;;;18.23;9.80;;;;;;;15.82;86.52;99510.34;1744731;81;21007;-70
2022/10/24 13:36:18;;;;;;;16.50;9.58;;;;;;;15.83;86.70;99517.28;1749327;82;21011;-70
2022/10/24 13:38:54;;;;;;;12.45;10.08;;;;;;;15.83;86.72;99520.37;1723721;81;21143;-70
2022/10/24 13:41:42;;;;;;;13.90;10.65;;;;;;;15.82;86.60;99510.34;1726247;81;21007;-70
2022/10/24 13:44:24;;;;;;;13.90;9.88;;;;;;;15.83;86.66;99517.28;1721411;82;21099;-68
2022/10/24 13:47:01;;;;;;;14.73;9.60;;;;;;;15.81;86.69;99517.84;1716903;81;21550;-71
2022/10/24 13:52:30;;;;;;;15.58;10.55;;;;;;;15.75;86.49;99514.31;1719405;82;21876;-70
2022/10/24 13:55:04;;;;;;;21.20;11.57;;;;;;;15.73;86.71;99524.52;1736225;80;21007;-70
2022/10/24 13:57:38;;;;;;;15.58;10.00;;;;;;;15.70;87.01;99513.74;1715280;80;21172;-72
2022/10/24 14:00:13;;;;;;;15.60;11.15;;;;;;;15.69;87.19;99511.21;1759160;81;21553;-70
2022/10/24 14:02:49;;;;;;;19.60;10.93;;;;;;;15.69;87.32;99504.66;1684493;83;20968;-70
2022/10/24 14:05:23;;;;;;;21.82;10.95;;;;;;;15.68;87.21;99504.28;1700920;82;21162;-70
2022/10/24 14:07:50;;;;;;;15.18;9.45;;;;;;;15.64;87.24;99502.78;1722476;80;20994;-70
2022/10/24 14:10:36;;;;;;;20.23;9.43;;;;;;;15.61;87.44;99506.42;1748183;80;21506;-68
2022/10/24 14:13:03;;;;;;;19.98;11.03;;;;;;;15.58;87.60;99509.73;1746374;80;21066;-70
2022/10/24 14:15:32;;;;;;;29.75;10.40;;;;;;;15.53;87.84;99503.42;1751500;80;21033;-70
2022/10/24 14:18:02;;;;;;;26.10;11.45;;;;;;;15.48;88.19;99504.16;1769306;80;21086;-70
2022/10/24 14:20:36;;;;;;;19.37;11.63;;;;;;;15.42;88.61;99501.44;1767390;80;20931;-70
2022/10/24 14:23:23;;;;;;;17.10;13.65;;;;;;;15.38;89.02;99497.34;1753033;80;21516;-70
2022/10/24 14:25:59;;;;;;;15.88;13.05;;;;;;;15.32;89.34;99502.09;1761661;80;20936;-70
2022/10/24 14:28:33;;;;;;;18.67;13.05;;;;;;;15.24;89.74;99505.17;1764361;80;20959;-70
2022/10/24 14:31:05;;;;;;;14.90;12.07;;;;;;;15.13;90.18;99511.06;1759847;80;21178;-69
2022/10/24 14:33:50;;;;;;;13.22;10.85;;;;;;;15.05;90.67;99495.41;1763429;80;21106;-70
2022/10/24 14:36:14;;;;;;;16.07;11.33;;;;;;;14.97;91.27;99494.58;1723693;82;21055;-71
2022/10/24 14:38:41;;;;;;;12.73;9.90;;;;;;;14.88;91.81;99491.17;1701151;83;20972;-71
2022/10/24 14:41:09;;;;;;;13.10;10.55;;;;;;;14.82;92.04;99494.98;1732524;82;20931;-71
2022/10/24 14:43:40;;;;;;;11.43;10.13;;;;;;;14.77;92.32;99498.36;1729359;81;21659;-71
2022/10/24 14:46:18;;;;;;;12.43;9.55;;;;;;;14.71;92.57;99497.86;1734785;82;20950;-69
2022/10/24 14:48:47;;;;;;;17.32;10.32;;;;;;;14.65;92.99;99504.75;1736769;81;21129;-70
2022/10/24 14:51:22;;;;;;;12.85;10.00;;;;;;;14.59;93.46;99511.67;1738922;81;21495;-70
2022/10/24 14:53:49;;;;;;;16.67;9.90;;;;;;;14.55;94.13;99516.69;1701643;82;20947;-70
2022/10/24 14:56:33;;;;;;;12.70;9.60;;;;;;;14.46;94.73;99517.58;1712280;82;21156;-70
2022/10/24 14:59:03;;;;;;;22.67;9.70;;;;;;;14.45;95.24;99521.59;1763567;80;20888;-70
2022/10/24 15:01:30;;;;;;;16.75;10.65;;;;;;;14.42;95.86;99528.30;1772461;80;21548;-70
2022/10/24 15:04:01;;;;;;;34.03;12.28;;;;;;;14.35;96.34;99523.02;1769817;80;21104;-70
2022/10/24 15:06:40;;;;;;;38.25;14.33;;;;;;;14.31;96.71;99522.34;1767304;80;20967;-71
2022/10/24 15:09:15;;;;;;;22.80;13.70;;;;;;;14.20;97.77;99514.23;1759567;80;21220;-69
2022/10/24 15:11:50;;;;;;;33.60;14.98;;;;;;;14.20;97.77;99514.23;1770682;80;21485;-69
2022/10/24 15:14:38;;;;;;;16.52;12.25;;;;;;;14.18;98.26;99520.50;1735503;81;20931;-69
2022/10/24 15:17:28;;;;;;;17.92;12.88;;;;;;;14.13;98.81;99521.59;1763930;80;20998;-70
2022/10/24 15:20:00;;;;;;;11.55;10.10;;;;;;;14.09;99.15;99526.61;1779863;80;21414;-69
2022/10/24 15:22:32;;;;;;;15.20;10.05;;;;;;;14.05;99.03;99520.31;1774420;80;21845;-69
2022/10/24 15:25:01;;;;;;;12.85;9.73;;;;;;;14.00;98.72;99529.71;1767349;80;21036;-69
2022/10/24 15:27:32;;;;;;;14.03;10.08;;;;;;;13.99;98.86;99528.48;1754043;80;20943;-69
2022/10/24 15:29:58;;;;;;;14.43;10.72;;;;;;;13.96;99.31;99524.30;1733788;81;20970;-69
2022/10/24 15:32:26;;;;;;;12.58;11.28;;;;;;;13.92;99.60;99525.38;1760223;80;20959;-70
2022/10/24 15:34:53;;;;;;;16.87;11.55;;;;;;;13.92;99.76;99528.45;1760397;80;21357;-68
2022/10/24 15:37:22;;;;;;;13.95;11.20;;;;;;;13.89;99.93;99537.77;1747896;80;20947;-69
2022/10/24 15:39:49;;;;;;;13.08;11.68;;;;;;;13.86;100.00;99528.78;1757702;80;21007;-69
2022/10/24 15:42:15;;;;;;;13.70;11.45;;;;;;;13.82;100.00;99528.09;1747734;80;21002;-69
2022/10/24 15:44:42;;;;;;;13.53;11.70;;;;;;;13.77;100.00;99519.22;1757579;80;21545;-69
2022/10/24 15:47:08;;;;;;;17.75;13.30;;;;;;;13.77;100.00;99519.22;1766566;80;21219;-69
2022/10/24 15:49:35;;;;;;;18.62;15.23;;;;;;;13.74;100.00;99518.53;1760096;80;20998;-68
2022/10/24 15:52:07;;;;;;;28.38;20.32;;;;;;;13.71;100.00;99523.92;1764136;80;20929;-69
2022/10/24 15:54:33;;;;;;;34.30;21.85;;;;;;;13.70;100.00;99528.77;1778016;80;20898;-69
2022/10/24 15:57:00;;;;;;;37.90;24.77;;;;;;;13.66;100.00;99532.00;1776264;80;21446;-68
2022/10/24 15:59:26;;;;;;;33.50;23.73;;;;;;;13.63;100.00;99533.92;1769762;80;21145;-69
2022/10/24 16:01:59;;;;;;;30.20;22.10;;;;;;;13.60;100.00;99534.08;1755439;80;21095;-68
2022/10/24 16:04:26;;;;;;;20.55;18.35;;;;;;;13.56;100.00;99532.58;1772575;80;20986;-68
2022/10/24 16:06:53;;;;;;;18.98;15.32;;;;;;;13.53;100.00;99538.80;1686039;81;21046;-69
2022/10/24 16:09:26;;;;;;;36.10;20.92;;;;;;;13.49;100.00;99541.19;1736899;81;21145;-70
2022/10/24 16:11:53;;;;;;;23.42;19.17;;;;;;;13.45;100.00;99533.97;1729677;81;21210;-68
2022/10/24 16:14:20;;;;;;;20.95;16.87;;;;;;;13.43;100.00;99537.58;1763716;80;20952;-70
2022/10/24 16:16:48;;;;;;;27.73;19.20;;;;;;;13.39;100.00;99549.95;1761096;80;20883;-69
2022/10/24 16:19:16;;;;;;;23.02;16.75;;;;;;;13.35;100.00;99552.36;1769644;80;21022;-69
2022/10/24 16:21:46;;;;;;;22.93;15.13;;;;;;;13.32;100.00;99549.91;1767478;80;21053;-69
2022/10/24 16:24:13;;;;;;;19.42;13.90;;;;;;;13.28;100.00;99544.45;1760727;80;21164;-69
2022/10/24 16:26:40;;;;;;;14.43;12.70;;;;;;;13.26;100.00;99540.22;1773751;80;20887;-69
2022/10/24 16:29:07;;;;;;;14.43;12.93;;;;;;;13.24;100.00;99540.76;1778838;80;20954;-69
2022/10/24 16:31:34;;;;;;;13.30;11.90;;;;;;;13.23;100.00;99539.06;1759036;80;21006;-69
2022/10/24 16:34:01;;;;;;;13.72;12.30;;;;;;;13.22;100.00;99543.91;1763892;80;20951;-69
2022/10/24 16:36:28;;;;;;;14.25;12.75;;;;;;;13.21;100.00;99546.98;1775374;80;21751;-69
2022/10/24 16:38:54;;;;;;;15.65;12.35;;;;;;;13.20;100.00;99543.13;1769234;80;20950;-69
2022/10/24 16:41:23;;;;;;;17.70;12.43;;;;;;;13.20;100.00;99544.44;1762754;80;20963;-70
2022/10/24 16:43:52;;;;;;;12.95;11.68;;;;;;;13.18;100.00;99545.01;1771732;80;21021;-70
2022/10/24 16:46:20;;;;;;;13.08;11.78;;;;;;;13.15;100.00;99542.09;1756974;80;20936;-70
2022/10/24 16:48:48;;;;;;;20.23;12.35;;;;;;;13.14;100.00;99539.52;1762418;80;21213;-70
2022/10/24 16:51:19;;;;;;;12.90;11.50;;;;;;;13.10;100.00;99542.28;1762290;80;20926;-70
2022/10/24 16:53:46;;;;;;;13.32;10.78;;;;;;;13.09;100.00;99534.06;1778577;80;21425;-70
2022/10/24 16:56:12;;;;;;;13.45;12.05;;;;;;;13.07;100.00;99537.67;1758485;80;20986;-68
2022/10/24 16:58:40;;;;;;;15.08;12.35;;;;;;;13.05;100.00;99544.73;1767965;80;21428;-70
2022/10/24 17:01:09;;;;;;;16.80;12.70;;;;;;;13.01;100.00;99544.49;1761143;80;21155;-70
2022/10/24 17:03:37;;;;;;;21.15;13.65;;;;;;;12.99;100.00;99541.14;1768010;80;20948;-68
2022/10/24 17:06:04;;;;;;;18.57;14.43;;;;;;;12.95;100.00;99544.83;1759127;80;21021;-69
2022/10/24 17:08:31;;;;;;;18.15;14.65;;;;;;;12.92;100.00;99543.67;1753189;80;20979;-68
2022/10/24 17:10:59;;;;;;;22.48;15.63;;;;;;;12.89;100.00;99543.81;1755719;80;21081;-69
2022/10/24 17:13:29;;;;;;;18.73;13.55;;;;;;;12.85;100.00;99541.81;1742362;80;20992;-69
2022/10/24 17:15:57;;;;;;;29.30;24.00;;;;;;;12.83;100.00;99542.34;1766302;80;20942;-69
2022/10/24 17:18:25;;;;;;;33.42;22.98;;;;;;;12.80;100.00;99549.02;1756142;80;21088;-69
2022/10/24 17:20:59;;;;;;;33.25;25.17;;;;;;;12.78;100.00;99547.43;1755897;80;20987;-69
2022/10/24 17:23:25;;;;;;;24.15;21.60;;;;;;;12.73;100.00;99552.87;1758613;81;21050;-69
2022/10/24 17:25:52;;;;;;;26.70;20.97;;;;;;;12.70;100.00;99551.70;1762978;80;21117;-69
2022/10/24 17:28:19;;;;;;;28.60;23.73;;;;;;;12.69;100.00;99553.47;1768010;80;21087;-69
2022/10/24 17:30:46;;;;;;;26.15;20.23;;;;;;;12.69;100.00;99551.32;1762201;80;21050;-69
2022/10/24 17:33:15;;;;;;;23.12;19.77;;;;;;;12.66;100.00;99548.39;1774527;80;20997;-69
2022/10/24 17:35:52;;;;;;;18.05;14.47;;;;;;;12.65;100.00;99545.86;1763882;80;21002;-69
2022/10/24 17:38:44;;;;;;;18.85;13.43;;;;;;;12.62;100.00;99541.63;1755081;80;21163;-69